Accueil
METAR-TAF:

METAR-TAF

Aéroports :

Tucson, Arizona, États-Unis

latitude: 32-08-32N, longitude: 111-10-28W, altitude: 737 m

Observation

Le bulletin a été fait il y a 6 heures et 8 minutes, à 02:45 UTC
Vent 7 kt de nord-ouest
Température 15°C
Humidité 13%
Pression 1013 hPa
Visibilité: 16.1 km
Ciel clair

METAR: KRYN 280245Z 31007KT 10SM CLR 15/M13 A2992 RMK LAST

Heure: 01:53 (08:53 UTC)


TAF: absent

Observations et prévisions météorologiques de plus de 4000 aéroports (messages METAR et TAF).

Les stations disponibles sont représentées par des disques jaunes et rouges sur la carte.

Passer la souris dessus pour voir le nom de la station.

Cliquer dessus pour voir les observations et prévisions météorologiques.

Pour changer de carte: cliquez sur les boutons verts avec une croix noire pour zoomer, sur le bouton vert avec un tiret pour effectuer un zoom arrière, ou sur les flèches vertes pour les cartes adjacentes.


METAR-TAF: